sensor_id;sensor_type;location;lat;lon;timestamp;pressure;altitude;pressure_sealevel;temperature;humidity
65557;BME280;52200;53.490;14.376;2023-05-07T00:00:20;102246.72;;;8.44;87.95
65557;BME280;52200;53.490;14.376;2023-05-07T00:02:46;102247.50;;;8.35;88.65
65557;BME280;52200;53.490;14.376;2023-05-07T00:05:11;102241.69;;;8.47;88.31
65557;BME280;52200;53.490;14.376;2023-05-07T00:07:37;102244.16;;;8.39;88.28
65557;BME280;52200;53.490;14.376;2023-05-07T00:10:03;102238.38;;;8.51;87.63
65557;BME280;52200;53.490;14.376;2023-05-07T00:12:29;102243.28;;;8.37;87.99
65557;BME280;52200;53.490;14.376;2023-05-07T00:14:59;102245.03;;;8.42;88.23
65557;BME280;52200;53.490;14.376;2023-05-07T00:17:24;102246.53;;;8.19;88.56
65557;BME280;52200;53.490;14.376;2023-05-07T00:19:50;102251.59;;;8.19;89.12
65557;BME280;52200;53.490;14.376;2023-05-07T00:22:15;102244.22;;;8.49;88.59
65557;BME280;52200;53.490;14.376;2023-05-07T00:24:41;102241.72;;;8.50;87.40
65557;BME280;52200;53.490;14.376;2023-05-07T00:27:06;102240.91;;;8.56;87.68
65557;BME280;52200;53.490;14.376;2023-05-07T00:29:31;102242.59;;;8.57;87.01
65557;BME280;52200;53.490;14.376;2023-05-07T00:31:57;102237.44;;;8.45;87.62
65557;BME280;52200;53.490;14.376;2023-05-07T00:34:22;102234.09;;;8.49;87.06
65557;BME280;52200;53.490;14.376;2023-05-07T00:36:48;102230.78;;;8.53;87.09
65557;BME280;52200;53.490;14.376;2023-05-07T00:39:13;102235.63;;;8.28;88.34
65557;BME280;52200;53.490;14.376;2023-05-07T00:41:39;102238.16;;;8.28;87.55
65557;BME280;52200;53.490;14.376;2023-05-07T00:44:05;102233.97;;;8.33;87.85
65557;BME280;52200;53.490;14.376;2023-05-07T00:46:32;102239.97;;;8.45;87.80
65557;BME280;52200;53.490;14.376;2023-05-07T00:48:58;102232.44;;;8.48;87.15
65557;BME280;52200;53.490;14.376;2023-05-07T00:51:25;102240.81;;;8.45;87.26
65557;BME280;52200;53.490;14.376;2023-05-07T00:53:53;102240.78;;;8.41;87.71
65557;BME280;52200;53.490;14.376;2023-05-07T00:56:20;102237.50;;;8.51;86.98
65557;BME280;52200;53.490;14.376;2023-05-07T00:58:45;102242.59;;;8.57;86.72
65557;BME280;52200;53.490;14.376;2023-05-07T01:01:11;102237.53;;;8.57;86.45
65557;BME280;52200;53.490;14.376;2023-05-07T01:03:36;102240.16;;;8.68;85.53
65557;BME280;52200;53.490;14.376;2023-05-07T01:06:02;102238.47;;;8.71;85.69
65557;BME280;52200;53.490;14.376;2023-05-07T01:08:29;102239.28;;;8.67;86.10
65557;BME280;52200;53.490;14.376;2023-05-07T01:10:56;102236.72;;;8.57;85.75
65557;BME280;52200;53.490;14.376;2023-05-07T01:13:22;102242.59;;;8.57;85.86
65557;BME280;52200;53.490;14.376;2023-05-07T01:15:48;102241.75;;;8.53;86.06
65557;BME280;52200;53.490;14.376;2023-05-07T01:18:14;102245.97;;;8.56;85.48
65557;BME280;52200;53.490;14.376;2023-05-07T01:20:40;102251.72;;;8.32;86.71
65557;BME280;52200;53.490;14.376;2023-05-07T01:23:06;102253.41;;;8.34;85.95
65557;BME280;52200;53.490;14.376;2023-05-07T01:25:32;102253.44;;;8.41;86.56
65557;BME280;52200;53.490;14.376;2023-05-07T01:27:57;102251.66;;;8.30;86.60
65557;BME280;52200;53.490;14.376;2023-05-07T01:30:25;102246.75;;;8.47;85.84
65557;BME280;52200;53.490;14.376;2023-05-07T01:33:01;102250.78;;;8.22;86.03
65557;BME280;52200;53.490;14.376;2023-05-07T01:35:32;102251.72;;;8.35;86.64
65557;BME280;52200;53.490;14.376;2023-05-07T01:37:58;102250.94;;;8.44;85.28
65557;BME280;52200;53.490;14.376;2023-05-07T01:40:24;102249.09;;;8.24;85.87
65557;BME280;52200;53.490;14.376;2023-05-07T01:42:50;102255.75;;;8.08;86.35
65557;BME280;52200;53.490;14.376;2023-05-07T01:45:16;102261.63;;;8.07;86.65
65557;BME280;52200;53.490;14.376;2023-05-07T01:47:42;102259.09;;;8.07;86.53
65557;BME280;52200;53.490;14.376;2023-05-07T01:50:08;102258.94;;;7.88;86.74
65557;BME280;52200;53.490;14.376;2023-05-07T01:52:37;102262.94;;;7.68;87.32
65557;BME280;52200;53.490;14.376;2023-05-07T01:55:02;102260.28;;;7.58;88.25
65557;BME280;52200;53.490;14.376;2023-05-07T01:57:28;102262.03;;;7.61;87.76
65557;BME280;52200;53.490;14.376;2023-05-07T01:59:53;102267.94;;;7.60;88.34
65557;BME280;52200;53.490;14.376;2023-05-07T02:02:19;102263.38;;;7.31;88.68
65557;BME280;52200;53.490;14.376;2023-05-07T02:04:44;102263.34;;;7.26;88.59
65557;BME280;52200;53.490;14.376;2023-05-07T02:07:10;102256.59;;;7.27;89.67
65557;BME280;52200;53.490;14.376;2023-05-07T02:09:35;102266.56;;;7.15;89.29
65557;BME280;52200;53.490;14.376;2023-05-07T02:12:00;102261.47;;;7.12;89.63
65557;BME280;52200;53.490;14.376;2023-05-07T02:14:26;102264.91;;;7.20;89.53
65557;BME280;52200;53.490;14.376;2023-05-07T02:16:52;102266.69;;;7.24;88.49
65557;BME280;52200;53.490;14.376;2023-05-07T02:19:17;102262.97;;;6.97;90.78
65557;BME280;52200;53.490;14.376;2023-05-07T02:21:43;102270.63;;;7.03;89.80
65557;BME280;52200;53.490;14.376;2023-05-07T02:24:08;102268.09;;;7.03;90.23
65557;BME280;52200;53.490;14.376;2023-05-07T02:26:34;102275.66;;;7.02;90.20
65557;BME280;52200;53.490;14.376;2023-05-07T02:28:59;102270.47;;;6.91;89.80
65557;BME280;52200;53.490;14.376;2023-05-07T02:31:25;102269.56;;;6.89;90.31
65557;BME280;52200;53.490;14.376;2023-05-07T02:33:50;102266.88;;;6.78;90.86
65557;BME280;52200;53.490;14.376;2023-05-07T02:36:16;102269.19;;;6.61;91.39
65557;BME280;52200;53.490;14.376;2023-05-07T02:38:41;102280.31;;;6.75;90.36
65557;BME280;52200;53.490;14.376;2023-05-07T02:41:07;102268.47;;;6.70;90.83
65557;BME280;52200;53.490;14.376;2023-05-07T02:43:32;102274.25;;;6.61;90.80
65557;BME280;52200;53.490;14.376;2023-05-07T02:46:05;102271.84;;;6.70;91.25
65557;BME280;52200;53.490;14.376;2023-05-07T02:48:31;102279.31;;;6.61;91.94
65557;BME280;52200;53.490;14.376;2023-05-07T02:50:58;102277.78;;;6.72;91.12
65557;BME280;52200;53.490;14.376;2023-05-07T02:53:23;102268.59;;;6.77;91.01
65557;BME280;52200;53.490;14.376;2023-05-07T02:55:58;102273.63;;;6.77;91.05
65557;BME280;52200;53.490;14.376;2023-05-07T02:58:24;102277.25;;;6.97;90.09
65557;BME280;52200;53.490;14.376;2023-05-07T03:00:49;102272.16;;;6.92;89.62
65557;BME280;52200;53.490;14.376;2023-05-07T03:03:15;102269.78;;;7.04;89.26
65557;BME280;52200;53.490;14.376;2023-05-07T03:05:41;102277.22;;;6.37;90.91
65557;BME280;52200;53.490;14.376;2023-05-07T03:08:07;102269.56;;;6.32;91.52
65557;BME280;52200;53.490;14.376;2023-05-07T03:10:33;102273.28;;;6.02;92.33
65557;BME280;52200;53.490;14.376;2023-05-07T03:12:58;102269.25;;;6.12;92.11
65557;BME280;52200;53.490;14.376;2023-05-07T03:15:23;102265.19;;;6.20;91.92
65557;BME280;52200;53.490;14.376;2023-05-07T03:17:49;102271.91;;;6.20;90.90
65557;BME280;52200;53.490;14.376;2023-05-07T03:20:14;102272.19;;;6.37;90.33
65557;BME280;52200;53.490;14.376;2023-05-07T03:22:40;102271.16;;;6.24;90.58
65557;BME280;52200;53.490;14.376;2023-05-07T03:25:06;102278.66;;;6.22;90.13
65557;BME280;52200;53.490;14.376;2023-05-07T03:27:32;102284.47;;;6.15;89.65
65557;BME280;52200;53.490;14.376;2023-05-07T03:29:58;102282.69;;;6.11;89.41
65557;BME280;52200;53.490;14.376;2023-05-07T03:32:23;102284.13;;;5.98;89.08
65557;BME280;52200;53.490;14.376;2023-05-07T03:34:49;102285.88;;;6.01;89.60
65557;BME280;52200;53.490;14.376;2023-05-07T03:37:15;102290.84;;;5.97;89.30
65557;BME280;52200;53.490;14.376;2023-05-07T03:39:40;102289.88;;;5.91;88.89
65557;BME280;52200;53.490;14.376;2023-05-07T03:42:05;102291.59;;;5.92;88.51
65557;BME280;52200;53.490;14.376;2023-05-07T03:44:31;102296.56;;;5.89;88.52
65557;BME280;52200;53.490;14.376;2023-05-07T03:46:57;102293.09;;;5.84;88.98
65557;BME280;52200;53.490;14.376;2023-05-07T03:49:22;102296.44;;;5.82;89.55
65557;BME280;52200;53.490;14.376;2023-05-07T03:51:47;102303.31;;;5.90;88.37
65557;BME280;52200;53.490;14.376;2023-05-07T03:54:13;102299.91;;;5.88;87.97
65557;BME280;52200;53.490;14.376;2023-05-07T03:56:38;102300.81;;;5.91;88.51
65557;BME280;52200;53.490;14.376;2023-05-07T03:59:03;102299.25;;;5.96;88.44
65557;BME280;52200;53.490;14.376;2023-05-07T04:01:29;102300.91;;;5.97;88.31
65557;BME280;52200;53.490;14.376;2023-05-07T04:03:55;102298.59;;;6.05;88.14
65557;BME280;52200;53.490;14.376;2023-05-07T04:06:21;102306.28;;;6.13;87.83
65557;BME280;52200;53.490;14.376;2023-05-07T04:08:47;102303.88;;;6.19;87.84
65557;BME280;52200;53.490;14.376;2023-05-07T04:11:12;102307.41;;;6.29;87.07
65557;BME280;52200;53.490;14.376;2023-05-07T04:13:38;102310.13;;;6.40;87.43
65557;BME280;52200;53.490;14.376;2023-05-07T04:16:04;102310.22;;;6.48;87.56
65557;BME280;52200;53.490;14.376;2023-05-07T04:18:30;102307.81;;;6.54;86.93
65557;BME280;52200;53.490;14.376;2023-05-07T04:20:55;102311.31;;;6.62;86.75
65557;BME280;52200;53.490;14.376;2023-05-07T04:23:20;102315.69;;;6.75;86.00
65557;BME280;52200;53.490;14.376;2023-05-07T04:25:46;102321.63;;;6.77;86.04
65557;BME280;52200;53.490;14.376;2023-05-07T04:28:12;102316.56;;;6.76;86.47
65557;BME280;52200;53.490;14.376;2023-05-07T04:30:38;102325.03;;;6.80;86.67
65557;BME280;52200;53.490;14.376;2023-05-07T04:33:04;102326.84;;;6.90;86.58
65557;BME280;52200;53.490;14.376;2023-05-07T04:35:29;102335.44;;;7.01;85.88
65557;BME280;52200;53.490;14.376;2023-05-07T04:37:54;102327.97;;;7.09;86.86
65557;BME280;52200;53.490;14.376;2023-05-07T04:40:20;102335.69;;;7.20;86.65
65557;BME280;52200;53.490;14.376;2023-05-07T04:42:45;102342.03;;;7.53;86.59
65557;BME280;52200;53.490;14.376;2023-05-07T04:45:11;102330.75;;;8.03;86.81
65557;BME280;52200;53.490;14.376;2023-05-07T04:47:38;102334.72;;;8.64;84.35
65557;BME280;52200;53.490;14.376;2023-05-07T04:50:04;102341.97;;;9.58;81.53
65557;BME280;52200;53.490;14.376;2023-05-07T04:52:29;102334.34;;;9.56;80.06
65557;BME280;52200;53.490;14.376;2023-05-07T04:54:55;102342.66;;;9.24;79.70
65557;BME280;52200;53.490;14.376;2023-05-07T04:57:20;102341.50;;;8.66;79.21
65557;BME280;52200;53.490;14.376;2023-05-07T04:59:46;102338.25;;;8.89;80.15
65557;BME280;52200;53.490;14.376;2023-05-07T05:02:11;102343.31;;;8.89;80.20
65557;BME280;52200;53.490;14.376;2023-05-07T05:04:37;102350.84;;;8.80;79.95
65557;BME280;52200;53.490;14.376;2023-05-07T05:07:02;102350.47;;;8.33;79.91
65557;BME280;52200;53.490;14.376;2023-05-07T05:09:31;102353.06;;;8.41;80.86
65557;BME280;52200;53.490;14.376;2023-05-07T05:11:56;102355.09;;;8.81;79.81
65557;BME280;52200;53.490;14.376;2023-05-07T05:14:22;102360.06;;;8.68;79.42
65557;BME280;52200;53.490;14.376;2023-05-07T05:16:47;102364.47;;;8.94;79.94
65557;BME280;52200;53.490;14.376;2023-05-07T05:19:12;102357.88;;;9.24;79.81
65557;BME280;52200;53.490;14.376;2023-05-07T05:21:38;102360.66;;;9.80;76.90
65557;BME280;52200;53.490;14.376;2023-05-07T05:24:03;102357.34;;;10.10;74.66
65557;BME280;52200;53.490;14.376;2023-05-07T05:26:29;102355.69;;;10.29;74.00
65557;BME280;52200;53.490;14.376;2023-05-07T05:28:54;102362.50;;;10.72;72.48
65557;BME280;52200;53.490;14.376;2023-05-07T05:31:20;102358.22;;;11.07;70.92
65557;BME280;52200;53.490;14.376;2023-05-07T05:33:46;102364.13;;;11.18;70.56
65557;BME280;52200;53.490;14.376;2023-05-07T05:36:11;102359.81;;;11.39;70.76
65557;BME280;52200;53.490;14.376;2023-05-07T05:38:38;102370.06;;;11.05;69.03
65557;BME280;52200;53.490;14.376;2023-05-07T05:41:04;102359.97;;;10.55;71.74
65557;BME280;52200;53.490;14.376;2023-05-07T05:43:30;102366.75;;;10.53;71.73
65557;BME280;52200;53.490;14.376;2023-05-07T05:45:56;102365.88;;;10.54;71.85
65557;BME280;52200;53.490;14.376;2023-05-07T05:48:22;102364.06;;;9.83;73.22
65557;BME280;52200;53.490;14.376;2023-05-07T05:50:48;102368.22;;;9.64;73.48
65557;BME280;52200;53.490;14.376;2023-05-07T05:53:13;102372.47;;;9.65;73.80
65557;BME280;52200;53.490;14.376;2023-05-07T05:55:39;102373.38;;;9.92;73.77
65557;BME280;52200;53.490;14.376;2023-05-07T05:58:04;102372.59;;;10.16;72.07
65557;BME280;52200;53.490;14.376;2023-05-07T06:00:30;102376.88;;;10.30;71.84
65557;BME280;52200;53.490;14.376;2023-05-07T06:02:55;102382.00;;;10.72;71.97
65557;BME280;52200;53.490;14.376;2023-05-07T06:05:21;102380.28;;;12.68;66.94
65557;BME280;52200;53.490;14.376;2023-05-07T06:07:46;102380.00;;;13.75;62.81
65557;BME280;52200;53.490;14.376;2023-05-07T06:10:12;102388.47;;;14.90;59.24
65557;BME280;52200;53.490;14.376;2023-05-07T06:12:37;102382.78;;;14.74;59.22
65557;BME280;52200;53.490;14.376;2023-05-07T06:15:03;102385.13;;;14.33;59.04
65557;BME280;52200;53.490;14.376;2023-05-07T06:17:29;102381.38;;;13.98;59.60
65557;BME280;52200;53.490;14.376;2023-05-07T06:19:54;102388.47;;;13.01;62.46
65557;BME280;52200;53.490;14.376;2023-05-07T06:22:20;102383.06;;;12.40;62.32
65557;BME280;52200;53.490;14.376;2023-05-07T06:24:45;102392.03;;;11.46;65.16
65557;BME280;52200;53.490;14.376;2023-05-07T06:27:11;102393.75;;;11.38;65.14
65557;BME280;52200;53.490;14.376;2023-05-07T06:29:36;102395.44;;;11.34;66.43
65557;BME280;52200;53.490;14.376;2023-05-07T06:32:13;102392.00;;;11.49;67.52
65557;BME280;52200;53.490;14.376;2023-05-07T06:34:39;102388.63;;;11.41;66.88
65557;BME280;52200;53.490;14.376;2023-05-07T06:37:05;102390.31;;;11.48;67.82
65557;BME280;52200;53.490;14.376;2023-05-07T06:39:31;102391.22;;;11.30;67.31
65557;BME280;52200;53.490;14.376;2023-05-07T06:41:57;102396.25;;;11.41;68.40
65557;BME280;52200;53.490;14.376;2023-05-07T06:44:22;102393.69;;;11.50;67.62
65557;BME280;52200;53.490;14.376;2023-05-07T06:46:48;102392.81;;;11.60;66.74
65557;BME280;52200;53.490;14.376;2023-05-07T06:49:14;102402.88;;;11.93;66.73
65557;BME280;52200;53.490;14.376;2023-05-07T06:51:40;102403.78;;;11.72;66.82
65557;BME280;52200;53.490;14.376;2023-05-07T06:54:05;102396.94;;;11.86;67.81
65557;BME280;52200;53.490;14.376;2023-05-07T06:56:31;102398.53;;;12.15;66.72
65557;BME280;52200;53.490;14.376;2023-05-07T06:58:57;102400.16;;;12.24;66.23
65557;BME280;52200;53.490;14.376;2023-05-07T07:01:22;102401.94;;;12.14;65.25
65557;BME280;52200;53.490;14.376;2023-05-07T07:03:48;102401.94;;;12.09;64.05
65557;BME280;52200;53.490;14.376;2023-05-07T07:06:13;102415.59;;;12.01;65.08
65557;BME280;52200;53.490;14.376;2023-05-07T07:08:39;102417.38;;;11.74;63.77
65557;BME280;52200;53.490;14.376;2023-05-07T07:11:05;102415.59;;;11.96;63.75
65557;BME280;52200;53.490;14.376;2023-05-07T07:13:30;102424.91;;;11.94;65.22
65557;BME280;52200;53.490;14.376;2023-05-07T07:15:56;102434.22;;;12.06;64.09
65557;BME280;52200;53.490;14.376;2023-05-07T07:18:21;102429.13;;;12.09;63.58
65557;BME280;52200;53.490;14.376;2023-05-07T07:20:47;102422.06;;;12.48;64.25
65557;BME280;52200;53.490;14.376;2023-05-07T07:23:13;102427.13;;;12.54;63.97
65557;BME280;52200;53.490;14.376;2023-05-07T07:25:38;102424.56;;;12.56;63.33
65557;BME280;52200;53.490;14.376;2023-05-07T07:28:04;102422.88;;;12.56;62.59
65557;BME280;52200;53.490;14.376;2023-05-07T07:30:30;102414.41;;;12.51;63.65
65557;BME280;52200;53.490;14.376;2023-05-07T07:32:55;102416.66;;;12.88;64.87
65557;BME280;52200;53.490;14.376;2023-05-07T07:35:25;102421.66;;;13.01;61.76
65557;BME280;52200;53.490;14.376;2023-05-07T07:37:50;102417.41;;;12.97;60.96
65557;BME280;52200;53.490;14.376;2023-05-07T07:40:16;102418.97;;;13.13;60.59
65557;BME280;52200;53.490;14.376;2023-05-07T07:42:41;102425.75;;;13.16;61.00
65557;BME280;52200;53.490;14.376;2023-05-07T07:45:07;102422.94;;;13.44;61.29
65557;BME280;52200;53.490;14.376;2023-05-07T07:47:33;102416.78;;;13.60;61.00
65557;BME280;52200;53.490;14.376;2023-05-07T07:49:58;102421.16;;;13.50;59.75
65557;BME280;52200;53.490;14.376;2023-05-07T07:52:24;102424.31;;;13.73;60.12
65557;BME280;52200;53.490;14.376;2023-05-07T07:54:49;102431.47;;;14.11;60.33
65557;BME280;52200;53.490;14.376;2023-05-07T07:57:15;102423.69;;;14.17;57.42
65557;BME280;52200;53.490;14.376;2023-05-07T07:59:40;102428.72;;;14.24;57.01
65557;BME280;52200;53.490;14.376;2023-05-07T08:02:08;102419.31;;;14.27;57.09
65557;BME280;52200;53.490;14.376;2023-05-07T08:04:33;102422.63;;;14.32;57.65
65557;BME280;52200;53.490;14.376;2023-05-07T08:06:59;102426.84;;;14.35;57.54
65557;BME280;52200;53.490;14.376;2023-05-07T08:09:24;102424.16;;;14.44;57.57
65557;BME280;52200;53.490;14.376;2023-05-07T08:11:49;102417.88;;;14.67;57.37
65557;BME280;52200;53.490;14.376;2023-05-07T08:14:15;102419.22;;;14.33;55.70
65557;BME280;52200;53.490;14.376;2023-05-07T08:16:41;102417.13;;;13.99;55.68
65557;BME280;52200;53.490;14.376;2023-05-07T08:19:06;102415.22;;;14.17;56.07
65557;BME280;52200;53.490;14.376;2023-05-07T08:21:32;102417.78;;;14.14;54.67
65557;BME280;52200;53.490;14.376;2023-05-07T08:23:57;102423.56;;;14.27;54.59
65557;BME280;52200;53.490;14.376;2023-05-07T08:26:23;102425.25;;;14.28;54.86
65557;BME280;52200;53.490;14.376;2023-05-07T08:28:48;102421.41;;;13.99;55.31
65557;BME280;52200;53.490;14.376;2023-05-07T08:31:13;102409.03;;;14.32;54.81
65557;BME280;52200;53.490;14.376;2023-05-07T08:33:39;102408.47;;;14.11;53.92
65557;BME280;52200;53.490;14.376;2023-05-07T08:36:05;102414.22;;;14.26;53.06
65557;BME280;52200;53.490;14.376;2023-05-07T08:38:31;102408.97;;;14.33;54.05
65557;BME280;52200;53.490;14.376;2023-05-07T08:40:56;102413.75;;;14.55;54.95
65557;BME280;52200;53.490;14.376;2023-05-07T08:43:26;102421.16;;;14.75;53.74
65557;BME280;52200;53.490;14.376;2023-05-07T08:45:54;102411.81;;;14.73;54.13
65557;BME280;52200;53.490;14.376;2023-05-07T08:48:22;102422.75;;;14.25;52.88
65557;BME280;52200;53.490;14.376;2023-05-07T08:50:50;102415.41;;;14.01;52.97
65557;BME280;52200;53.490;14.376;2023-05-07T08:53:16;102416.31;;;13.96;53.89
65557;BME280;52200;53.490;14.376;2023-05-07T08:55:43;102411.72;;;14.21;53.06
65557;BME280;52200;53.490;14.376;2023-05-07T08:58:08;102422.00;;;14.16;51.50
65557;BME280;52200;53.490;14.376;2023-05-07T09:00:36;102419.19;;;14.35;51.09
65557;BME280;52200;53.490;14.376;2023-05-07T09:03:01;102428.22;;;14.56;53.09
65557;BME280;52200;53.490;14.376;2023-05-07T09:05:27;102422.31;;;14.52;53.00
65557;BME280;52200;53.490;14.376;2023-05-07T09:07:52;102427.09;;;14.76;51.46
65557;BME280;52200;53.490;14.376;2023-05-07T09:10:17;102416.94;;;14.71;52.04
65557;BME280;52200;53.490;14.376;2023-05-07T09:12:43;102423.06;;;15.12;53.83
65557;BME280;52200;53.490;14.376;2023-05-07T09:15:09;102419.91;;;14.98;53.01
65557;BME280;52200;53.490;14.376;2023-05-07T09:17:34;102424.06;;;15.02;51.38
65557;BME280;52200;53.490;14.376;2023-05-07T09:20:04;102419.03;;;14.99;51.96
65557;BME280;52200;53.490;14.376;2023-05-07T09:22:32;102419.69;;;15.09;51.91
65557;BME280;52200;53.490;14.376;2023-05-07T09:24:58;102415.13;;;14.78;51.98
65557;BME280;52200;53.490;14.376;2023-05-07T09:27:23;102412.00;;;14.57;51.10
65557;BME280;52200;53.490;14.376;2023-05-07T09:29:49;102405.84;;;15.19;52.31
65557;BME280;52200;53.490;14.376;2023-05-07T09:32:15;102409.41;;;15.12;51.79
65557;BME280;52200;53.490;14.376;2023-05-07T09:34:41;102415.63;;;15.44;52.33
65557;BME280;52200;53.490;14.376;2023-05-07T09:37:07;102408.63;;;15.52;50.30
65557;BME280;52200;53.490;14.376;2023-05-07T09:39:46;102418.75;;;15.58;50.22
65557;BME280;52200;53.490;14.376;2023-05-07T09:42:13;102413.91;;;15.44;50.89
65557;BME280;52200;53.490;14.376;2023-05-07T09:44:40;102423.06;;;15.56;51.72
65557;BME280;52200;53.490;14.376;2023-05-07T09:47:06;102412.59;;;15.67;50.22
65557;BME280;52200;53.490;14.376;2023-05-07T09:49:37;102414.97;;;15.75;50.97
65557;BME280;52200;53.490;14.376;2023-05-07T09:52:06;102407.84;;;15.91;50.61
65557;BME280;52200;53.490;14.376;2023-05-07T09:54:34;102416.56;;;15.82;50.90
65557;BME280;52200;53.490;14.376;2023-05-07T09:57:04;102412.28;;;15.84;50.24
65557;BME280;52200;53.490;14.376;2023-05-07T09:59:31;102410.81;;;15.71;50.05
65557;BME280;52200;53.490;14.376;2023-05-07T10:01:58;102417.59;;;15.73;49.94
65557;BME280;52200;53.490;14.376;2023-05-07T10:04:27;102410.63;;;15.78;51.03
65557;BME280;52200;53.490;14.376;2023-05-07T10:06:54;102405.34;;;15.88;50.35
65557;BME280;52200;53.490;14.376;2023-05-07T10:09:21;102421.59;;;15.44;49.70
65557;BME280;52200;53.490;14.376;2023-05-07T10:11:49;102408.28;;;15.68;51.64
65557;BME280;52200;53.490;14.376;2023-05-07T10:14:14;102408.94;;;15.77;50.00
65557;BME280;52200;53.490;14.376;2023-05-07T10:16:40;102419.69;;;15.95;50.31
65557;BME280;52200;53.490;14.376;2023-05-07T10:19:08;102409.53;;;15.92;48.47
65557;BME280;52200;53.490;14.376;2023-05-07T10:21:39;102409.81;;;15.78;50.67
65557;BME280;52200;53.490;14.376;2023-05-07T10:24:41;102416.72;;;15.73;48.85
65557;BME280;52200;53.490;14.376;2023-05-07T10:27:12;102418.25;;;15.39;48.78
65557;BME280;52200;53.490;14.376;2023-05-07T10:35:06;102408.31;;;16.08;49.43
65557;BME280;52200;53.490;14.376;2023-05-07T10:37:34;102407.16;;;15.83;47.84
65557;BME280;52200;53.490;14.376;2023-05-07T10:40:01;102411.16;;;15.54;47.41
65557;BME280;52200;53.490;14.376;2023-05-07T10:42:26;102412.94;;;15.50;47.55
65557;BME280;52200;53.490;14.376;2023-05-07T10:44:51;102420.25;;;15.69;45.94
65557;BME280;52200;53.490;14.376;2023-05-07T10:47:17;102416.03;;;15.66;45.19
65557;BME280;52200;53.490;14.376;2023-05-07T10:52:22;102420.88;;;15.78;45.40
65557;BME280;52200;53.490;14.376;2023-05-07T10:57:40;102399.22;;;15.53;45.61
65557;BME280;52200;53.490;14.376;2023-05-07T11:05:31;102396.47;;;15.62;46.39
65557;BME280;52200;53.490;14.376;2023-05-07T11:07:57;102398.81;;;15.71;48.29
65557;BME280;52200;53.490;14.376;2023-05-07T11:10:23;102409.16;;;15.68;47.45
65557;BME280;52200;53.490;14.376;2023-05-07T11:13:08;102414.94;;;15.78;45.87
65557;BME280;52200;53.490;14.376;2023-05-07T11:15:39;102413.28;;;15.74;45.15
65557;BME280;52200;53.490;14.376;2023-05-07T11:18:07;102403.53;;;15.93;43.61
65557;BME280;52200;53.490;14.376;2023-05-07T11:26:07;102408.66;;;15.93;44.17
65557;BME280;52200;53.490;14.376;2023-05-07T11:28:38;102404.94;;;16.06;45.44
65557;BME280;52200;53.490;14.376;2023-05-07T11:31:04;102412.84;;;15.97;43.53
65557;BME280;52200;53.490;14.376;2023-05-07T11:33:31;102401.09;;;15.87;44.99
65557;BME280;52200;53.490;14.376;2023-05-07T11:35:57;102392.13;;;15.64;46.06
65557;BME280;52200;53.490;14.376;2023-05-07T11:38:22;102383.38;;;15.76;47.22
65557;BME280;52200;53.490;14.376;2023-05-07T11:40:49;102389.41;;;15.73;47.25
65557;BME280;52200;53.490;14.376;2023-05-07T11:43:15;102381.72;;;16.13;46.90
65557;BME280;52200;53.490;14.376;2023-05-07T11:45:41;102393.81;;;16.43;47.01
65557;BME280;52200;53.490;14.376;2023-05-07T11:48:06;102395.72;;;16.70;44.95
65557;BME280;52200;53.490;14.376;2023-05-07T11:50:32;102388.84;;;16.70;44.58
65557;BME280;52200;53.490;14.376;2023-05-07T11:52:57;102384.50;;;16.39;44.57
65557;BME280;52200;53.490;14.376;2023-05-07T11:55:24;102395.94;;;16.26;46.01
65557;BME280;52200;53.490;14.376;2023-05-07T11:57:51;102391.03;;;16.17;45.12
65557;BME280;52200;53.490;14.376;2023-05-07T12:00:17;102397.31;;;16.03;44.90
65557;BME280;52200;53.490;14.376;2023-05-07T12:02:44;102394.00;;;15.98;44.89
65557;BME280;52200;53.490;14.376;2023-05-07T12:05:10;102402.03;;;15.83;44.65
65557;BME280;52200;53.490;14.376;2023-05-07T12:07:36;102399.47;;;15.83;45.26
65557;BME280;52200;53.490;14.376;2023-05-07T12:10:08;102395.34;;;15.75;43.14
65557;BME280;52200;53.490;14.376;2023-05-07T12:12:40;102382.16;;;15.92;44.35
65557;BME280;52200;53.490;14.376;2023-05-07T12:15:07;102400.16;;;16.28;45.63
65557;BME280;52200;53.490;14.376;2023-05-07T12:17:33;102388.22;;;16.26;42.82
65557;BME280;52200;53.490;14.376;2023-05-07T12:19:58;102390.00;;;16.24;44.14
65557;BME280;52200;53.490;14.376;2023-05-07T12:22:24;102387.41;;;16.25;43.90
65557;BME280;52200;53.490;14.376;2023-05-07T12:24:56;102386.28;;;16.00;44.62
65557;BME280;52200;53.490;14.376;2023-05-07T12:27:22;102396.78;;;15.89;46.55
65557;BME280;52200;53.490;14.376;2023-05-07T12:29:49;102392.44;;;16.30;45.18
65557;BME280;52200;53.490;14.376;2023-05-07T12:32:16;102394.38;;;16.55;45.34
65557;BME280;52200;53.490;14.376;2023-05-07T12:34:42;102393.09;;;16.71;43.19
65557;BME280;52200;53.490;14.376;2023-05-07T12:37:08;102394.66;;;16.44;42.16
65557;BME280;52200;53.490;14.376;2023-05-07T12:39:33;102390.50;;;16.73;41.37
65557;BME280;52200;53.490;14.376;2023-05-07T12:41:59;102395.06;;;16.96;43.15
65557;BME280;52200;53.490;14.376;2023-05-07T12:44:29;102396.56;;;16.70;41.99
65557;BME280;52200;53.490;14.376;2023-05-07T12:46:55;102398.72;;;16.53;43.42
65557;BME280;52200;53.490;14.376;2023-05-07T12:49:20;102401.69;;;16.70;43.81
65557;BME280;52200;53.490;14.376;2023-05-07T12:51:47;102386.81;;;16.83;43.87
65557;BME280;52200;53.490;14.376;2023-05-07T12:54:14;102380.13;;;16.77;43.62
65557;BME280;52200;53.490;14.376;2023-05-07T12:56:39;102386.53;;;16.96;40.47
65557;BME280;52200;53.490;14.376;2023-05-07T12:59:05;102382.00;;;17.05;42.12
65557;BME280;52200;53.490;14.376;2023-05-07T13:01:31;102384.16;;;17.19;41.19